Pleasanton, CA (94566)

2:36 AM PDT on September 01, 2014 (GMT -0700)
Mission Hills Park | Change Station
CLOSE
Current Station
Personal Weather Station
Location: Pleasanton, CA
Elevation: 348 ft
Nearby Weather Stations

Elev 348 ft 37.65 °N, 121.87 °W | Updated 19 seconds ago

Clear
Clear
59.9 °F
Feels Like 59.9 °F
N
1.0
Wind Variable Wind from East
Gusts 2.0 mph

Today
High -- | Low -- °F
--% Chance of Precip.
Yesterday
High -- | Low -- °F
Precip. -- in
6:37 AM 7:36 PM
Waxing Crescent, 39% visible
Pressure 29.82 in
Visibility 10.0 miles
Clouds Clear
Dew Point 54 °F
Humidity 81%
Rainfall 0.00 in
Snow Depth Not available.
UV 0 out of 12
Pollen 7.60 out of 12
Ozone Good
PM2.5 Good
Flu Activity Not available.
METAR KLVK 010853Z AUTO 00000KT 10SM CLR 18/11 A2983 RMK AO2 SLP098 T01780111 58002 TSNO

More Conditions Fewer Conditions

Pressure 29.82 in
Visibility 10.0 miles
Clouds Clear
Dew Point 54 °F
Humidity 81%
Rainfall 0.00 in
Snow Depth Not available.
UV 0 out of 12
Pollen 7.60 out of 12
Ozone Good
PM2.5 Good
Flu Activity Not available.
METAR KLVK 010853Z AUTO 00000KT 10SM CLR 18/11 A2983 RMK AO2 SLP098 T01780111 58002 TSNO

More Conditions Fewer Conditions

10-Day Weather Forecast

Almanac

Astronomy

Sep. 01, 2014 Rise Set
Actual Time 6:37 AM PDT 7:36 PM PDT
Civil Twilight 6:10 AM PDT 8:03 PM PDT
Nautical Twilight 5:39 AM PDT 8:34 PM PDT
Astronomical Twilight 5:06 AM PDT 9:07 PM PDT
Moon 1:21 PM PDT 11:49 PM PDT
Length of Visible Light 13h 52m
Length of Day
12h 58m
Tomorrow will be 2m 19s shorter.
Waxing Crescent, 39% of the Moon is Illuminated
Today
Waxing Crescent
Sep 2
First Quarter
Sep 8
Full
Sep 15
Last Quarter
Sep 24
New

Today's Extremes

State Highs State Lows

Community

WunderPhotos

Upload Photos

1,749,178 photos uploaded!

Nearby

Air Quality

  Air Quality AQ Index Pollutant
Yesterday Good
OZONE
Yesterday Good
PM2.5
Current Good
PM2.5
Current Good
OZONE
Monday Good
OZONE
Tuesday Good
OZONE
Wednesday Good
OZONE
Thursday Good
OZONE
Friday Good
OZONE

Snow Depth

Station Depth Elevation
Blue Lakes 0 in 8000 ft
Forestdale Creek 0 in 8029 ft
Echo Peak 0 in 7800 ft
Leavitt Lake 0 in 9400 ft
Fallen Leaf 0 in 6300 ft

Earthquake Activity

City Distance Mag. Time & Date
Green Valley, California 44 miles 2.5 6:37 AM PDT
2014-08-31
Napa, California 47 miles 3.2 1:56 AM PDT
2014-08-31
Gonzales, California 78 miles 2.7 9:48 PM PDT
2014-08-30
Ridgemark, California 73 miles 3.4 4:32 PM PDT
2014-08-29
Minimum magnitude displayed is 2.5.

Coastal Water Temperatures

Place Temperature
No Stations Reporting

Nearby Weather Stations